createdAt,value
2023-11-01T00:00:57.183Z,15.89
2023-11-01T00:03:25.165Z,16.17
2023-11-01T00:05:53.135Z,16.03
2023-11-01T00:08:20.951Z,15.64
2023-11-01T00:10:48.816Z,15.68
2023-11-01T00:13:18.064Z,16.06
2023-11-01T00:15:45.913Z,15.76
2023-11-01T00:18:13.811Z,16.17
2023-11-01T00:20:41.739Z,14.82
2023-11-01T00:23:09.653Z,15.02
2023-11-01T00:25:37.623Z,15.63
2023-11-01T00:28:05.650Z,15.87
2023-11-01T00:30:34.923Z,14.65
2023-11-01T00:33:02.771Z,14.19
2023-11-01T00:35:30.618Z,15.79
2023-11-01T00:37:58.503Z,14.48
2023-11-01T00:40:26.378Z,15.66
2023-11-01T00:42:54.247Z,15.41
2023-11-01T00:45:22.258Z,16.31
2023-11-01T00:47:51.618Z,16.23
2023-11-01T00:50:19.849Z,14.38
2023-11-01T00:52:47.725Z,15.90
2023-11-01T00:55:15.584Z,15.06
2023-11-01T00:57:43.934Z,15.27
2023-11-01T01:00:12.916Z,15.59
2023-11-01T01:02:40.917Z,15.40
2023-11-01T01:05:10.402Z,16.23
2023-11-01T01:07:38.326Z,14.02
2023-11-01T01:10:05.962Z,15.95
2023-11-01T01:12:33.766Z,15.28
2023-11-01T01:15:02.479Z,15.14
2023-11-01T01:17:30.439Z,16.20
2023-11-01T01:19:58.258Z,15.64
2023-11-01T01:22:27.428Z,16.18
2023-11-01T01:24:55.343Z,15.96
2023-11-01T01:27:23.103Z,15.19
2023-11-01T01:29:50.888Z,15.03
2023-11-01T01:32:18.701Z,16.14
2023-11-01T01:34:46.472Z,14.33
2023-11-01T01:37:14.210Z,15.78
2023-11-01T01:39:43.395Z,15.17
2023-11-01T01:42:11.187Z,15.13
2023-11-01T01:44:39.064Z,15.43
2023-11-01T01:47:06.889Z,15.99
2023-11-01T01:49:40.044Z,15.36
2023-11-01T01:52:12.948Z,15.16
2023-11-01T01:54:40.705Z,14.75
2023-11-01T01:57:10.927Z,14.30
2023-11-01T01:59:38.914Z,15.96
2023-11-01T02:02:07.209Z,15.85
2023-11-01T02:04:34.913Z,15.11
2023-11-01T02:07:02.719Z,14.60
2023-11-01T02:09:30.487Z,15.21
2023-11-01T02:11:58.280Z,14.77
2023-11-01T02:14:28.184Z,15.11
2023-11-01T02:16:56.098Z,15.95
2023-11-01T02:19:24.442Z,15.53
2023-11-01T02:21:52.217Z,15.81
2023-11-01T02:24:21.561Z,14.54
2023-11-01T02:26:49.359Z,14.84
2023-11-01T02:29:17.210Z,15.96
2023-11-01T02:31:45.058Z,14.81
2023-11-01T02:34:13.017Z,15.39
2023-11-01T02:36:40.758Z,14.92
2023-11-01T02:39:09.071Z,14.76
2023-11-01T02:41:40.157Z,15.98
2023-11-01T02:44:10.050Z,15.18
2023-11-01T02:46:38.134Z,14.16
2023-11-01T02:49:06.126Z,15.52
2023-11-01T02:51:33.997Z,15.32
2023-11-01T02:54:02.916Z,16.00
2023-11-01T02:56:30.729Z,15.40
2023-11-01T02:58:59.987Z,15.91
2023-11-01T03:01:27.986Z,15.90
2023-11-01T03:03:55.869Z,14.74
2023-11-01T03:06:23.713Z,15.82
2023-11-01T03:08:51.988Z,15.77
2023-11-01T03:11:19.792Z,14.57
2023-11-01T03:13:47.536Z,15.11
2023-11-01T03:16:16.760Z,14.72
2023-11-01T03:18:46.731Z,15.65
2023-11-01T03:21:14.570Z,15.20
2023-11-01T03:23:42.484Z,15.52
2023-11-01T03:26:10.537Z,14.74
2023-11-01T03:28:38.271Z,14.63
2023-11-01T03:31:07.355Z,13.77
2023-11-01T03:33:36.658Z,15.45
2023-11-01T03:36:06.441Z,15.44
2023-11-01T03:38:34.389Z,14.72
2023-11-01T03:41:04.422Z,15.03
2023-11-01T03:43:32.170Z,14.74
2023-11-01T03:46:00.008Z,14.14
2023-11-01T03:48:28.195Z,14.19
2023-11-01T03:50:57.446Z,14.75
2023-11-01T03:53:25.658Z,13.97
2023-11-01T03:55:53.551Z,15.32
2023-11-01T03:58:21.456Z,15.11
2023-11-01T04:00:49.176Z,14.74
2023-11-01T04:03:17.017Z,14.01
2023-11-01T04:05:44.946Z,14.19
2023-11-01T04:08:15.242Z,13.97
2023-11-01T04:10:43.061Z,14.01
2023-11-01T04:13:11.682Z,14.27
2023-11-01T04:15:39.505Z,14.47
2023-11-01T04:18:07.919Z,14.97
2023-11-01T04:20:35.714Z,14.79
2023-11-01T04:23:03.552Z,14.65
2023-11-01T04:25:33.375Z,15.23
2023-11-01T04:28:01.527Z,14.37
2023-11-01T04:30:35.465Z,15.23
2023-11-01T04:33:03.284Z,15.23
2023-11-01T04:35:31.101Z,14.38
2023-11-01T04:37:58.865Z,14.11
2023-11-01T04:40:26.633Z,14.01
2023-11-01T04:42:56.537Z,13.91
2023-11-01T04:45:24.585Z,13.39
2023-11-01T04:47:52.415Z,14.71
2023-11-01T04:50:21.821Z,14.73
2023-11-01T04:52:49.511Z,15.21
2023-11-01T04:55:17.802Z,14.96
2023-11-01T04:57:48.331Z,14.94
2023-11-01T05:00:18.335Z,15.29
2023-11-01T05:02:47.354Z,15.31
2023-11-01T05:09:14.933Z,15.35
2023-11-01T05:24:16.865Z,11.59
2023-11-01T05:26:46.495Z,14.45
2023-11-01T05:29:17.616Z,15.28
2023-11-01T05:31:45.734Z,13.39
2023-11-01T05:34:16.145Z,14.26
2023-11-01T05:36:45.552Z,12.83
2023-11-01T05:39:14.184Z,13.47
2023-11-01T05:41:48.610Z,13.09
2023-11-01T05:44:20.709Z,13.36
2023-11-01T05:46:54.205Z,13.57
2023-11-01T05:49:22.326Z,13.85
2023-11-01T05:51:51.517Z,14.80
2023-11-01T05:54:19.716Z,15.50
2023-11-01T05:56:57.274Z,15.50
2023-11-01T05:59:26.680Z,13.87
2023-11-01T06:02:07.269Z,14.33
2023-11-01T06:04:35.715Z,14.24
2023-11-01T06:07:06.135Z,14.87
2023-11-01T06:09:34.460Z,15.25
2023-11-01T06:12:10.518Z,13.07
2023-11-01T06:14:40.557Z,14.42
2023-11-01T06:17:08.724Z,13.31
2023-11-01T06:19:36.794Z,15.63
2023-11-01T06:22:06.099Z,14.78
2023-11-01T06:24:34.472Z,13.08
2023-11-01T06:27:03.106Z,14.82
2023-11-01T06:29:31.220Z,14.75
2023-11-01T06:32:01.088Z,14.50
2023-11-01T06:34:29.364Z,13.90
2023-11-01T06:37:03.910Z,13.92
2023-11-01T06:39:32.398Z,13.29
2023-11-01T06:42:00.592Z,15.24
2023-11-01T06:44:28.728Z,15.89
2023-11-01T06:46:57.948Z,15.32
2023-11-01T06:49:30.894Z,14.06
2023-11-01T06:52:00.278Z,14.84
2023-11-01T06:54:29.549Z,13.68
2023-11-01T06:56:57.847Z,13.51
2023-11-01T06:59:28.840Z,13.45
2023-11-01T07:02:03.556Z,13.98
2023-11-01T07:04:33.776Z,15.41
2023-11-01T07:07:01.994Z,14.40
2023-11-01T07:09:31.218Z,14.29
2023-11-01T07:12:00.976Z,15.22
2023-11-01T07:14:30.468Z,14.78
2023-11-01T07:16:59.616Z,16.21
2023-11-01T07:19:34.754Z,14.90
2023-11-01T07:22:03.274Z,14.43
2023-11-01T07:24:34.373Z,13.32
2023-11-01T07:27:38.741Z,16.34
2023-11-01T07:36:31.758Z,16.54
2023-11-01T07:42:39.479Z,13.69
2023-11-01T07:45:12.789Z,16.73
2023-11-01T07:47:42.599Z,13.57
2023-11-01T07:50:33.664Z,14.88
2023-11-01T07:53:03.763Z,16.77
2023-11-01T07:55:32.363Z,16.23
2023-11-01T07:58:05.175Z,15.79
2023-11-01T08:00:37.325Z,17.88
2023-11-01T08:03:05.380Z,18.09
2023-11-01T08:05:35.479Z,16.30
2023-11-01T08:08:07.709Z,17.20
2023-11-01T08:10:35.705Z,16.34
2023-11-01T08:13:03.670Z,15.72
2023-11-01T08:15:36.246Z,15.66
2023-11-01T08:18:04.432Z,18.30
2023-11-01T08:20:35.741Z,17.55
2023-11-01T08:23:05.235Z,18.26
2023-11-01T08:25:34.136Z,16.66
2023-11-01T08:28:05.369Z,16.30
2023-11-01T08:30:34.910Z,15.76
2023-11-01T08:33:05.999Z,18.08
2023-11-01T08:35:35.747Z,18.90
2023-11-01T08:38:07.594Z,19.00
2023-11-01T08:40:35.670Z,17.00
2023-11-01T08:43:05.678Z,17.65
2023-11-01T08:45:35.920Z,18.50
2023-11-01T08:48:14.263Z,17.88
2023-11-01T08:50:43.011Z,20.78
2023-11-01T08:53:12.713Z,19.46
2023-11-01T08:55:40.908Z,21.51
2023-11-01T08:58:09.329Z,19.11
2023-11-01T09:00:45.783Z,21.12
2023-11-01T09:03:25.511Z,23.02
2023-11-01T09:05:57.103Z,22.94
2023-11-01T09:08:29.613Z,21.34
2023-11-01T09:10:57.747Z,22.23
2023-11-01T09:13:27.123Z,22.86
2023-11-01T09:15:55.067Z,22.13
2023-11-01T09:18:23.221Z,22.54
2023-11-01T09:20:54.381Z,22.82
2023-11-01T09:23:24.246Z,21.54
2023-11-01T09:25:53.975Z,23.37
2023-11-01T09:28:23.338Z,23.08
2023-11-01T09:30:51.477Z,21.18
2023-11-01T09:33:20.899Z,21.02
2023-11-01T09:35:50.342Z,22.86
2023-11-01T09:38:18.808Z,23.12
2023-11-01T09:40:47.020Z,20.58
2023-11-01T09:43:17.410Z,21.81
2023-11-01T09:45:47.731Z,23.63
2023-11-01T09:48:16.009Z,21.97
2023-11-01T09:50:46.481Z,23.71
2023-11-01T09:53:17.256Z,23.20
2023-11-01T09:55:49.616Z,22.87
2023-11-01T09:58:20.836Z,22.97
2023-11-01T10:00:49.243Z,22.28
2023-11-01T10:03:19.063Z,21.80
2023-11-01T10:05:47.529Z,20.64
2023-11-01T10:08:17.461Z,19.44
2023-11-01T10:10:45.444Z,19.94
2023-11-01T10:13:15.534Z,21.67
2023-11-01T10:15:46.436Z,20.22
2023-11-01T10:18:14.621Z,20.06
2023-11-01T10:20:44.700Z,20.02
2023-11-01T10:23:13.345Z,21.19
2023-11-01T10:26:15.005Z,24.93
2023-11-01T11:12:21.039Z,31.16
2023-11-01T11:14:49.240Z,30.74
2023-11-01T11:17:21.154Z,32.00
2023-11-01T11:34:13.116Z,32.05
2023-11-01T11:36:40.897Z,31.02
2023-11-01T11:39:11.557Z,29.66
2023-11-01T11:41:46.274Z,29.87
2023-11-01T11:44:14.544Z,30.19
2023-11-01T11:46:47.419Z,30.95
2023-11-01T11:49:28.984Z,31.47
2023-11-01T11:55:09.145Z,31.77
2023-11-01T12:01:28.633Z,33.56
2023-11-01T12:04:15.617Z,31.36
2023-11-01T12:07:04.578Z,31.51
2023-11-01T12:09:42.206Z,32.69
2023-11-01T12:15:06.616Z,30.58
2023-11-01T12:17:57.851Z,31.70
2023-11-01T12:20:38.839Z,30.01
2023-11-01T12:23:13.757Z,29.45
2023-11-01T12:25:45.119Z,28.46
2023-11-01T12:28:22.004Z,27.33
2023-11-01T12:30:49.772Z,25.97
2023-11-01T12:33:20.769Z,25.97
2023-11-01T12:35:48.596Z,25.03
2023-11-01T12:38:18.719Z,24.33
2023-11-01T12:40:51.147Z,23.83
2023-11-01T12:43:30.406Z,23.33
2023-11-01T12:49:59.815Z,21.71
2023-11-01T12:52:27.798Z,22.39
2023-11-01T12:54:56.870Z,22.20
2023-11-01T12:57:24.655Z,21.99
2023-11-01T12:59:52.437Z,21.70
2023-11-01T13:02:20.401Z,21.66
2023-11-01T13:04:48.233Z,21.36
2023-11-01T13:07:16.033Z,21.26
2023-11-01T13:09:43.767Z,21.22
2023-11-01T13:12:12.868Z,21.19
2023-11-01T13:14:40.618Z,20.95
2023-11-01T13:17:09.311Z,21.03
2023-11-01T13:19:37.116Z,20.97
2023-11-01T13:22:05.357Z,20.80
2023-11-01T13:24:33.182Z,20.87
2023-11-01T13:27:07.618Z,20.72
2023-11-01T13:29:36.980Z,20.03
2023-11-01T13:32:05.014Z,20.59
2023-11-01T13:34:32.923Z,20.31
2023-11-01T13:37:01.967Z,20.43
2023-11-01T13:39:29.699Z,20.38
2023-11-01T13:41:57.470Z,20.36
2023-11-01T13:44:25.808Z,20.21
2023-11-01T13:46:55.125Z,20.25
2023-11-01T13:49:23.034Z,19.88
2023-11-01T13:51:52.144Z,19.97
2023-11-01T13:54:22.360Z,19.91
2023-11-01T13:56:50.211Z,19.85
2023-11-01T13:59:20.282Z,19.33
2023-11-01T14:01:49.164Z,19.55
2023-11-01T14:04:19.480Z,19.61
2023-11-01T14:06:48.403Z,18.96
2023-11-01T14:09:18.174Z,18.36
2023-11-01T14:11:53.532Z,18.20
2023-11-01T15:35:10.247Z,17.55
2023-11-01T15:37:41.519Z,18.02
2023-11-01T15:40:11.668Z,16.49
2023-11-01T15:42:46.800Z,16.69
2023-11-01T15:45:16.035Z,16.34
2023-11-01T15:47:44.150Z,18.03
2023-11-01T15:51:11.893Z,18.05
2023-11-01T15:53:50.467Z,18.03
2023-11-01T15:56:38.380Z,18.10
2023-11-01T15:59:11.600Z,17.43
2023-11-01T16:01:40.358Z,17.46
2023-11-01T16:04:08.656Z,16.96
2023-11-01T16:20:59.856Z,14.77
2023-11-01T16:27:35.639Z,16.39
2023-11-01T16:33:57.796Z,15.81
2023-11-01T16:36:28.252Z,15.94
2023-11-01T16:38:58.117Z,17.74
2023-11-01T16:50:53.081Z,17.20
2023-11-01T16:53:32.901Z,16.16
2023-11-01T16:56:49.451Z,14.90
2023-11-01T17:10:58.580Z,16.64
2023-11-01T17:46:47.731Z,16.43
2023-11-01T17:49:44.637Z,17.56
2023-11-01T17:52:12.503Z,16.86
2023-11-01T17:54:40.386Z,17.10
2023-11-01T17:57:08.306Z,16.64
2023-11-01T17:59:47.547Z,16.74
2023-11-01T18:02:59.383Z,17.20
2023-11-01T18:05:35.576Z,16.68
2023-11-01T18:08:09.785Z,17.13
2023-11-01T18:10:42.771Z,16.62
2023-11-01T18:13:23.594Z,16.84
2023-11-01T18:15:56.226Z,16.19
2023-11-01T18:18:42.658Z,17.48
2023-11-01T18:21:12.278Z,15.78
2023-11-01T18:23:41.547Z,17.06
2023-11-01T18:26:20.694Z,16.98
2023-11-01T18:28:50.103Z,15.69
2023-11-01T18:31:21.603Z,16.09
2023-11-01T18:33:58.085Z,17.35
2023-11-01T18:36:26.785Z,16.11
2023-11-01T18:38:55.846Z,16.53
2023-11-01T18:41:27.046Z,17.16
2023-11-01T18:43:55.691Z,14.29
2023-11-01T18:46:33.282Z,16.43
2023-11-01T18:49:01.799Z,16.30
2023-11-01T18:51:56.687Z,16.97
2023-11-01T18:54:25.643Z,16.56
2023-11-01T18:56:53.868Z,16.83
2023-11-01T18:59:31.846Z,15.00
2023-11-01T19:02:01.290Z,15.47
2023-11-01T19:04:29.426Z,16.40
2023-11-01T19:06:59.060Z,15.46
2023-11-01T19:09:27.527Z,15.49
2023-11-01T19:11:56.792Z,15.65
2023-11-01T19:14:24.828Z,15.66
2023-11-01T19:16:53.954Z,16.82
2023-11-01T19:19:23.612Z,15.23
2023-11-01T19:21:52.099Z,14.56
2023-11-01T19:24:20.206Z,15.08
2023-11-01T19:26:48.501Z,14.98
2023-11-01T19:29:18.782Z,15.96
2023-11-01T19:31:47.207Z,16.21
2023-11-01T19:34:15.344Z,16.76
2023-11-01T19:36:45.586Z,14.90
2023-11-01T19:39:14.364Z,14.66
2023-11-01T19:41:43.992Z,15.94
2023-11-01T19:44:12.628Z,13.92
2023-11-01T19:46:43.441Z,15.83
2023-11-01T19:49:12.269Z,14.28
2023-11-01T19:51:40.737Z,15.64
2023-11-01T19:54:12.699Z,16.23
2023-11-01T19:56:41.074Z,14.64
2023-11-01T19:59:10.981Z,16.08
2023-11-01T20:01:41.695Z,15.12
2023-11-01T20:04:10.173Z,15.31
2023-11-01T20:06:38.521Z,16.07
2023-11-01T20:09:10.607Z,14.39
2023-11-01T20:11:43.104Z,14.91
2023-11-01T20:14:13.955Z,14.80
2023-11-01T20:16:42.393Z,16.09
2023-11-01T20:19:13.185Z,14.54
2023-11-01T20:21:47.670Z,14.80
2023-11-01T23:08:02.855Z,15.77
2023-11-01T23:10:32.320Z,15.76
2023-11-01T23:13:02.101Z,15.45
2023-11-01T23:15:30.087Z,15.20
2023-11-01T23:17:58.942Z,15.73
2023-11-01T23:20:27.379Z,15.63
2023-11-01T23:22:57.686Z,15.79
2023-11-01T23:25:30.271Z,15.24
2023-11-01T23:28:00.706Z,15.12
2023-11-01T23:30:44.174Z,15.15
2023-11-01T23:33:13.062Z,14.53
2023-11-01T23:42:10.265Z,15.78
2023-11-01T23:56:02.080Z,15.08
2023-11-01T23:58:31.290Z,13.66
